createdAt,value
2022-10-01T00:06:40.630Z,11.79
2022-10-01T00:13:23.604Z,11.62
2022-10-01T00:20:13.970Z,11.49
2022-10-01T00:26:57.272Z,11.31
2022-10-01T00:33:40.080Z,11.20
2022-10-01T00:40:22.984Z,11.13
2022-10-01T00:47:20.462Z,11.06
2022-10-01T00:54:03.411Z,11.05
2022-10-01T01:00:46.282Z,11.05
2022-10-01T01:07:32.118Z,11.03
2022-10-01T01:14:23.704Z,11.06
2022-10-01T01:35:18.319Z,11.13
2022-10-01T01:42:02.354Z,11.17
2022-10-01T01:48:45.461Z,11.13
2022-10-01T01:55:27.213Z,11.14
2022-10-01T02:02:18.948Z,11.16
2022-10-01T02:09:09.100Z,11.15
2022-10-01T02:16:03.670Z,11.11
2022-10-01T02:22:55.385Z,11.12
2022-10-01T02:29:38.164Z,11.14
2022-10-01T02:36:20.895Z,11.14
2022-10-01T02:43:05.463Z,11.15
2022-10-01T02:49:47.998Z,11.02
2022-10-01T02:56:31.194Z,10.99
2022-10-01T03:03:13.862Z,11.02
2022-10-01T03:09:56.597Z,11.11
2022-10-01T03:16:39.381Z,11.17
2022-10-01T03:23:22.151Z,11.13
2022-10-01T03:30:05.059Z,11.09
2022-10-01T03:36:47.717Z,11.06
2022-10-01T03:43:30.506Z,10.94
2022-10-01T03:50:13.217Z,10.85
2022-10-01T03:56:55.808Z,10.75
2022-10-01T04:03:38.604Z,10.69
2022-10-01T04:10:21.380Z,10.57
2022-10-01T04:17:04.797Z,10.46
2022-10-01T04:23:47.662Z,10.40
2022-10-01T04:30:30.634Z,10.21
2022-10-01T04:37:13.548Z,10.06
2022-10-01T04:43:56.142Z,9.97
2022-10-01T04:50:38.622Z,9.78
2022-10-01T04:57:21.464Z,9.53
2022-10-01T05:04:04.321Z,9.48
2022-10-01T05:10:47.237Z,9.55
2022-10-01T05:17:30.028Z,9.53
2022-10-01T05:24:12.562Z,9.69
2022-10-01T05:30:55.279Z,9.86
2022-10-01T05:37:37.648Z,10.07
2022-10-01T05:44:20.442Z,10.31
2022-10-01T05:50:02.908Z,10.49
2022-10-01T05:55:37.640Z,10.60
2022-10-01T06:01:43.320Z,10.75
2022-10-01T06:08:25.755Z,10.84
2022-10-01T06:15:08.517Z,10.90
2022-10-01T06:21:51.341Z,11.07
2022-10-01T06:28:34.021Z,11.25
2022-10-01T06:35:17.317Z,11.44
2022-10-01T06:42:00.701Z,11.66
2022-10-01T06:48:45.656Z,11.86
2022-10-01T06:55:28.434Z,12.03
2022-10-01T07:02:15.121Z,12.08
2022-10-01T07:08:59.167Z,12.15
2022-10-01T07:15:46.155Z,12.26
2022-10-01T07:22:29.208Z,12.34
2022-10-01T07:29:15.023Z,12.48
2022-10-01T07:35:57.975Z,12.64
2022-10-01T07:42:40.235Z,12.85
2022-10-01T07:49:23.064Z,13.02
2022-10-01T07:54:52.893Z,13.17
2022-10-01T08:01:15.566Z,13.34
2022-10-01T08:07:59.531Z,13.56
2022-10-01T08:13:42.759Z,13.77
2022-10-01T08:19:04.742Z,13.90
2022-10-01T08:24:27.103Z,14.02
2022-10-01T08:30:29.823Z,14.16
2022-10-01T08:36:33.697Z,14.28
2022-10-01T08:43:15.419Z,14.35
2022-10-01T08:50:04.121Z,14.39
2022-10-01T08:56:08.407Z,14.40
2022-10-01T09:02:00.868Z,14.41
2022-10-01T09:08:38.063Z,14.47
2022-10-01T09:14:47.486Z,14.57
2022-10-01T09:20:40.292Z,14.64
2022-10-01T09:27:03.686Z,14.67
2022-10-01T09:33:52.412Z,14.78
2022-10-01T09:40:17.554Z,14.89
2022-10-01T09:46:42.828Z,14.97
2022-10-01T09:52:22.732Z,15.05
2022-10-01T09:58:29.240Z,15.03
2022-10-01T10:03:59.210Z,14.98
2022-10-01T10:09:29.779Z,15.00
2022-10-01T10:14:59.109Z,15.03
2022-10-01T10:20:25.383Z,15.05
2022-10-01T10:26:07.504Z,15.15
2022-10-01T10:32:30.147Z,15.20
2022-10-01T10:38:52.833Z,15.20
2022-10-01T10:45:35.232Z,15.30
2022-10-01T10:52:23.453Z,15.56
2022-10-01T10:59:11.757Z,15.92
2022-10-01T11:05:54.250Z,16.09
2022-10-01T11:12:47.159Z,16.33
2022-10-01T11:19:26.732Z,16.74
2022-10-01T11:26:13.704Z,16.84
2022-10-01T11:32:37.374Z,16.62
2022-10-01T11:39:20.431Z,16.62
2022-10-01T11:46:14.220Z,16.61
2022-10-01T11:53:02.296Z,16.46
2022-10-01T12:00:14.067Z,16.29
2022-10-01T12:06:57.063Z,16.16
2022-10-01T12:13:40.741Z,16.16
2022-10-01T12:20:26.657Z,16.21
2022-10-01T12:27:16.359Z,16.22
2022-10-01T12:34:10.052Z,16.36
2022-10-01T12:41:23.109Z,16.41
2022-10-01T12:48:25.165Z,16.29
2022-10-01T13:49:21.229Z,15.45
2022-10-01T13:56:04.500Z,15.31
2022-10-01T14:03:02.706Z,15.17
2022-10-01T14:09:46.197Z,15.14
2022-10-01T14:16:47.336Z,15.21
2022-10-01T14:23:30.068Z,15.23
2022-10-01T14:30:18.750Z,15.20
2022-10-01T14:37:16.225Z,15.23
2022-10-01T14:44:07.332Z,15.28
2022-10-01T14:50:50.184Z,15.32
2022-10-01T14:57:34.106Z,15.37
2022-10-01T15:04:20.277Z,15.41
2022-10-01T15:11:06.485Z,15.45
2022-10-01T15:17:49.962Z,15.37
2022-10-01T15:24:32.950Z,15.17
2022-10-01T15:31:16.133Z,14.96
2022-10-01T15:37:58.912Z,14.80
2022-10-01T15:44:47.479Z,14.60
2022-10-01T15:51:09.853Z,14.39
2022-10-01T15:57:56.166Z,14.25
2022-10-01T16:04:41.696Z,14.13
2022-10-01T16:11:31.665Z,14.00
2022-10-01T16:18:20.476Z,13.89
2022-10-01T16:25:09.384Z,13.79
2022-10-01T16:31:52.299Z,13.68
2022-10-01T16:38:36.326Z,13.59
2022-10-01T16:45:21.357Z,13.55
2022-10-01T16:52:04.412Z,13.50
2022-10-01T16:58:49.731Z,13.48
2022-10-01T17:05:32.563Z,13.46
2022-10-01T17:12:16.821Z,13.45
2022-10-01T17:18:59.630Z,13.46
2022-10-01T17:25:42.983Z,13.46
2022-10-01T17:32:27.263Z,13.44
2022-10-01T17:39:10.106Z,13.41
2022-10-01T17:45:53.126Z,13.37
2022-10-01T17:52:36.309Z,13.37
2022-10-01T17:59:19.401Z,13.29
2022-10-01T18:06:04.521Z,13.20
2022-10-01T18:12:47.559Z,13.09
2022-10-01T18:26:39.408Z,12.25
2022-10-01T18:33:23.415Z,11.77
2022-10-01T18:40:12.711Z,11.39
2022-10-01T18:46:59.678Z,11.17
2022-10-01T18:53:45.052Z,10.95
2022-10-01T19:00:43.908Z,10.80
2022-10-01T19:34:17.289Z,10.81
2022-10-01T19:41:16.158Z,10.86
2022-10-01T19:48:08.995Z,10.87
2022-10-01T19:54:56.197Z,10.85
2022-10-01T20:08:11.517Z,10.73
2022-10-01T20:15:08.672Z,10.55
2022-10-01T20:22:07.233Z,10.41
2022-10-01T20:29:08.354Z,10.35
2022-10-01T20:35:57.067Z,10.27
2022-10-01T20:56:13.588Z,10.11
2022-10-01T21:03:12.636Z,10.09
2022-10-01T21:09:58.907Z,9.98
2022-10-01T21:16:57.104Z,9.91
2022-10-01T21:23:38.332Z,9.92
2022-10-01T21:30:30.016Z,9.88
2022-10-01T22:38:41.550Z,10.18
2022-10-01T22:45:24.636Z,10.29
2022-10-01T22:52:20.230Z,10.33
2022-10-01T22:59:21.938Z,10.35
2022-10-01T23:06:18.143Z,10.40
2022-10-01T23:47:23.799Z,10.32
2022-10-01T23:54:37.972Z,10.33
